createdAt,value
2023-03-01T00:00:07.701Z,10.65
2023-03-01T00:01:10.155Z,9.22
2023-03-01T00:02:12.792Z,10.74
2023-03-01T00:03:15.344Z,11.96
2023-03-01T00:04:17.919Z,9.76
2023-03-01T00:05:20.338Z,10.23
2023-03-01T00:06:22.786Z,11.74
2023-03-01T00:07:25.393Z,11.07
2023-03-01T00:08:27.858Z,11.28
2023-03-01T00:09:30.367Z,9.37
2023-03-01T00:10:32.900Z,10.13
2023-03-01T00:11:35.154Z,11.08
2023-03-01T00:12:37.378Z,10.33
2023-03-01T00:13:39.581Z,8.73
2023-03-01T00:14:41.821Z,10.95
2023-03-01T00:15:44.047Z,10.28
2023-03-01T00:16:46.366Z,11.80
2023-03-01T00:17:48.586Z,10.83
2023-03-01T00:18:50.779Z,10.83
2023-03-01T00:19:52.998Z,12.91
2023-03-01T00:20:55.180Z,9.98
2023-03-01T00:21:57.366Z,9.94
2023-03-01T00:22:59.637Z,14.01
2023-03-01T00:24:01.974Z,14.59
2023-03-01T00:25:04.172Z,11.53
2023-03-01T00:26:06.373Z,11.37
2023-03-01T00:27:08.670Z,10.06
2023-03-01T00:28:11.131Z,11.69
2023-03-01T00:29:13.316Z,13.04
2023-03-01T00:30:15.537Z,11.44
2023-03-01T00:31:17.961Z,12.65
2023-03-01T00:32:20.402Z,10.98
2023-03-01T00:33:23.206Z,12.19
2023-03-01T00:34:25.600Z,11.37
2023-03-01T00:35:28.050Z,11.83
2023-03-01T00:36:31.035Z,12.48
2023-03-01T00:37:33.705Z,10.85
2023-03-01T00:38:36.193Z,9.71
2023-03-01T00:39:38.662Z,9.71
2023-03-01T00:40:41.037Z,10.88
2023-03-01T00:41:43.643Z,9.49
2023-03-01T00:42:46.127Z,10.91
2023-03-01T00:43:48.742Z,9.98
2023-03-01T00:44:51.366Z,12.04
2023-03-01T00:45:53.877Z,11.45
2023-03-01T00:46:56.319Z,10.50
2023-03-01T00:47:58.796Z,12.50
2023-03-01T00:49:01.459Z,10.65
2023-03-01T00:50:03.960Z,10.68
2023-03-01T00:51:06.346Z,11.98
2023-03-01T00:52:08.617Z,11.76
2023-03-01T00:53:10.848Z,8.91
2023-03-01T00:54:13.100Z,9.01
2023-03-01T00:55:15.554Z,10.15
2023-03-01T00:56:18.018Z,9.04
2023-03-01T00:57:20.457Z,7.57
2023-03-01T00:58:22.904Z,8.99
2023-03-01T00:59:25.499Z,9.38
2023-03-01T01:00:27.984Z,9.58
2023-03-01T01:01:30.705Z,8.55
2023-03-01T01:02:33.069Z,10.76
2023-03-01T01:03:35.522Z,8.47
2023-03-01T01:04:38.157Z,7.57
2023-03-01T01:05:40.676Z,8.17
2023-03-01T01:06:43.134Z,6.95
2023-03-01T01:07:45.658Z,9.39
2023-03-01T01:08:48.072Z,8.27
2023-03-01T01:09:50.519Z,9.99
2023-03-01T01:10:53.000Z,10.18
2023-03-01T01:11:55.627Z,12.33
2023-03-01T01:12:58.109Z,8.70
2023-03-01T01:14:00.560Z,10.00
2023-03-01T01:15:03.063Z,9.26
2023-03-01T01:16:06.029Z,10.35
2023-03-01T01:17:08.475Z,10.28
2023-03-01T01:18:10.895Z,9.58
2023-03-01T01:19:13.366Z,8.83
2023-03-01T01:20:16.099Z,9.50
2023-03-01T01:21:18.679Z,11.25
2023-03-01T01:22:21.067Z,8.52
2023-03-01T01:23:23.579Z,7.53
2023-03-01T01:24:26.059Z,10.08
2023-03-01T01:25:28.696Z,10.57
2023-03-01T01:26:31.635Z,12.95
2023-03-01T01:27:35.238Z,9.12
2023-03-01T01:28:37.490Z,8.48
2023-03-01T01:29:39.714Z,11.33
2023-03-01T01:30:42.110Z,9.05
2023-03-01T01:31:44.294Z,6.93
2023-03-01T01:32:46.562Z,7.23
2023-03-01T01:33:48.851Z,12.00
2023-03-01T01:34:51.122Z,9.66
2023-03-01T01:35:53.387Z,8.20
2023-03-01T01:36:55.648Z,8.69
2023-03-01T01:37:58.058Z,6.20
2023-03-01T01:39:00.488Z,8.08
2023-03-01T01:40:02.764Z,8.41
2023-03-01T01:41:05.302Z,12.07
2023-03-01T01:42:07.787Z,9.09
2023-03-01T01:43:10.222Z,6.97
2023-03-01T01:44:12.829Z,9.36
2023-03-01T01:45:15.369Z,8.25
2023-03-01T01:46:17.902Z,8.61
2023-03-01T01:47:20.446Z,12.55
2023-03-01T01:48:22.907Z,7.32
2023-03-01T01:49:25.370Z,7.53
2023-03-01T01:50:27.920Z,7.12
2023-03-01T01:51:30.517Z,7.79
2023-03-01T01:52:32.960Z,7.28
2023-03-01T01:53:35.324Z,9.79
2023-03-01T01:54:37.787Z,9.32
2023-03-01T01:55:40.327Z,9.74
2023-03-01T01:56:42.762Z,7.12
2023-03-01T01:57:45.257Z,8.49
2023-03-01T01:58:47.664Z,9.44
2023-03-01T01:59:50.136Z,6.35
2023-03-01T02:00:52.544Z,9.83
2023-03-01T02:01:55.121Z,8.93
2023-03-01T02:02:57.723Z,7.33
2023-03-01T02:04:00.193Z,6.24
2023-03-01T02:05:02.576Z,6.44
2023-03-01T02:06:05.064Z,8.53
2023-03-01T02:07:07.549Z,10.56
2023-03-01T02:08:10.020Z,14.20
2023-03-01T02:09:12.497Z,6.03
2023-03-01T02:10:14.907Z,9.98
2023-03-01T02:11:17.395Z,5.59
2023-03-01T02:12:19.991Z,6.58
2023-03-01T02:13:23.328Z,4.04
2023-03-01T02:14:25.502Z,5.76
2023-03-01T02:15:27.741Z,5.80
2023-03-01T02:16:30.431Z,6.56
2023-03-01T02:17:32.940Z,5.12
2023-03-01T02:18:35.160Z,7.11
2023-03-01T02:19:37.433Z,7.12
2023-03-01T02:20:39.628Z,5.83
2023-03-01T02:21:41.855Z,5.67
2023-03-01T02:22:44.377Z,7.12
2023-03-01T02:23:46.859Z,8.74
2023-03-01T02:24:49.369Z,6.68
2023-03-01T02:25:51.956Z,7.02
2023-03-01T02:26:54.431Z,6.59
2023-03-01T02:27:57.182Z,6.75
2023-03-01T02:28:59.622Z,21.94
2023-03-01T02:30:02.083Z,8.78
2023-03-01T02:31:04.646Z,7.49
2023-03-01T02:32:07.206Z,6.49
2023-03-01T02:33:09.584Z,8.72
2023-03-01T02:34:12.063Z,7.42
2023-03-01T02:35:14.469Z,6.02
2023-03-01T02:36:16.664Z,8.68
2023-03-01T02:37:18.909Z,8.40
2023-03-01T02:38:21.180Z,8.68
2023-03-01T02:39:23.369Z,9.57
2023-03-01T02:40:25.605Z,6.24
2023-03-01T02:41:27.820Z,7.78
2023-03-01T02:42:30.034Z,4.71
2023-03-01T02:43:32.261Z,7.31
2023-03-01T02:44:34.428Z,7.02
2023-03-01T02:45:36.627Z,7.58
2023-03-01T02:46:38.876Z,5.72
2023-03-01T02:47:41.269Z,5.07
2023-03-01T02:48:43.733Z,7.03
2023-03-01T02:49:46.200Z,7.78
2023-03-01T02:50:48.719Z,6.14
2023-03-01T02:51:51.216Z,4.77
2023-03-01T02:52:53.455Z,4.62
2023-03-01T02:53:55.653Z,4.62
2023-03-01T02:54:57.861Z,7.78
2023-03-01T02:56:00.107Z,7.89
2023-03-01T02:57:02.276Z,7.45
2023-03-01T02:58:04.519Z,4.93
2023-03-01T02:59:06.685Z,4.95
2023-03-01T03:00:08.848Z,4.98
2023-03-01T03:01:11.276Z,3.31
2023-03-01T03:02:13.684Z,4.22
2023-03-01T03:03:16.094Z,7.36
2023-03-01T03:04:18.607Z,4.27
2023-03-01T03:05:21.092Z,5.87
2023-03-01T03:06:23.545Z,6.22
2023-03-01T03:07:26.106Z,4.92
2023-03-01T03:08:28.644Z,6.37
2023-03-01T03:09:31.262Z,4.33
2023-03-01T03:10:33.696Z,6.14
2023-03-01T03:11:36.155Z,5.62
2023-03-01T03:12:38.584Z,7.68
2023-03-01T03:13:41.009Z,5.56
2023-03-01T03:14:43.639Z,4.78
2023-03-01T03:15:46.109Z,4.58
2023-03-01T03:16:48.579Z,4.12
2023-03-01T03:17:51.029Z,3.05
2023-03-01T03:18:53.484Z,6.00
2023-03-01T03:19:56.076Z,6.93
2023-03-01T03:20:58.446Z,5.77
2023-03-01T03:22:00.883Z,4.93
2023-03-01T03:23:03.313Z,5.39
2023-03-01T03:24:05.888Z,5.03
2023-03-01T03:25:08.318Z,4.05
2023-03-01T03:26:10.769Z,7.84
2023-03-01T03:27:13.196Z,9.45
2023-03-01T03:28:15.675Z,5.32
2023-03-01T03:29:17.866Z,4.05
2023-03-01T03:30:20.330Z,12.18
2023-03-01T03:31:22.926Z,7.02
2023-03-01T03:32:25.494Z,5.92
2023-03-01T03:33:27.964Z,5.29
2023-03-01T03:34:30.197Z,5.52
2023-03-01T03:35:32.782Z,6.18
2023-03-01T03:36:35.073Z,4.28
2023-03-01T03:37:37.290Z,6.84
2023-03-01T03:38:39.505Z,5.99
2023-03-01T03:39:41.709Z,3.95
2023-03-01T03:40:44.077Z,5.67
2023-03-01T03:41:46.493Z,9.51
2023-03-01T03:42:48.887Z,3.73
2023-03-01T03:43:52.242Z,7.48
2023-03-01T03:44:54.638Z,7.10
2023-03-01T03:45:57.120Z,6.41
2023-03-01T03:46:59.744Z,7.22
2023-03-01T03:48:02.334Z,9.42
2023-03-01T03:49:04.847Z,10.52
2023-03-01T03:50:07.258Z,10.78
2023-03-01T03:51:09.981Z,14.46
2023-03-01T03:52:12.453Z,8.92
2023-03-01T03:53:14.943Z,8.08
2023-03-01T03:54:17.430Z,11.68
2023-03-01T03:55:19.823Z,10.18
2023-03-01T03:56:22.562Z,9.87
2023-03-01T03:57:24.961Z,9.40
2023-03-01T03:58:27.164Z,7.22
2023-03-01T03:59:29.660Z,6.87
2023-03-01T04:00:32.176Z,6.72
2023-03-01T04:01:34.844Z,8.06
2023-03-01T04:02:37.194Z,6.46
2023-03-01T04:03:39.457Z,6.76
2023-03-01T04:04:41.641Z,6.33
2023-03-01T04:05:44.148Z,5.72
2023-03-01T04:06:46.750Z,9.46
2023-03-01T04:07:49.346Z,6.25
2023-03-01T04:08:51.829Z,7.19
2023-03-01T04:09:54.244Z,8.82
2023-03-01T04:10:56.736Z,9.44
2023-03-01T04:11:59.444Z,6.23
2023-03-01T04:13:01.974Z,4.84
2023-03-01T04:14:04.399Z,6.98
2023-03-01T04:15:06.846Z,5.91
2023-03-01T04:16:09.297Z,11.63
2023-03-01T04:17:11.844Z,10.72
2023-03-01T04:18:17.390Z,5.55
2023-03-01T04:19:19.875Z,4.85
2023-03-01T04:20:22.327Z,4.52
2023-03-01T04:21:24.826Z,6.00
2023-03-01T04:22:27.438Z,6.37
2023-03-01T04:23:29.865Z,4.26
2023-03-01T04:24:32.331Z,7.16
2023-03-01T04:25:34.984Z,4.64
2023-03-01T04:26:37.698Z,7.92
2023-03-01T04:27:40.128Z,8.56
2023-03-01T04:28:42.298Z,7.33
2023-03-01T04:29:44.525Z,5.34
2023-03-01T04:30:46.717Z,5.39
2023-03-01T04:31:49.068Z,6.18
2023-03-01T04:32:51.461Z,5.65
2023-03-01T04:33:53.650Z,6.44
2023-03-01T04:34:55.894Z,6.42
2023-03-01T04:35:58.282Z,9.34
2023-03-01T04:37:00.513Z,4.46
2023-03-01T04:38:03.089Z,8.14
2023-03-01T04:39:05.237Z,7.36
2023-03-01T04:40:07.430Z,8.51
2023-03-01T04:41:09.656Z,5.05
2023-03-01T04:42:11.833Z,8.41
2023-03-01T04:43:14.197Z,8.46
2023-03-01T04:44:16.412Z,7.16
2023-03-01T04:45:18.994Z,8.05
2023-03-01T04:46:21.648Z,8.65
2023-03-01T04:47:24.144Z,10.01
2023-03-01T04:48:26.742Z,7.11
2023-03-01T04:49:29.186Z,7.19
2023-03-01T04:50:31.384Z,7.65
2023-03-01T04:51:33.842Z,6.72
2023-03-01T04:52:36.342Z,5.68
2023-03-01T04:53:38.929Z,7.20
2023-03-01T04:54:41.279Z,6.42
2023-03-01T04:55:43.777Z,8.85
2023-03-01T04:56:45.994Z,6.21
2023-03-01T04:57:48.444Z,7.55
2023-03-01T04:58:51.014Z,9.51
2023-03-01T04:59:53.420Z,8.24
2023-03-01T05:00:55.882Z,7.29
2023-03-01T05:01:58.313Z,6.99
2023-03-01T05:03:01.116Z,6.68
2023-03-01T05:04:03.886Z,8.15
2023-03-01T05:05:06.212Z,7.20
2023-03-01T05:06:08.416Z,6.83
2023-03-01T05:07:10.715Z,9.96
2023-03-01T05:08:12.943Z,8.40
2023-03-01T05:09:15.326Z,8.18
2023-03-01T05:10:17.529Z,9.67
2023-03-01T05:11:19.978Z,7.52
2023-03-01T05:12:22.478Z,8.78
2023-03-01T05:13:24.914Z,7.25
2023-03-01T05:14:27.203Z,9.83
2023-03-01T05:15:29.955Z,8.66
2023-03-01T05:16:35.096Z,7.30
2023-03-01T05:17:36.589Z,7.86
2023-03-01T05:18:39.227Z,6.85
2023-03-01T05:19:41.750Z,9.81
2023-03-01T05:20:44.339Z,8.79
2023-03-01T05:21:46.782Z,9.03
2023-03-01T05:22:49.411Z,8.11
2023-03-01T05:23:51.843Z,7.52
2023-03-01T05:24:54.194Z,9.93
2023-03-01T05:25:56.673Z,8.48
2023-03-01T05:26:59.044Z,10.32
2023-03-01T05:28:01.595Z,9.84
2023-03-01T05:29:04.312Z,11.28
2023-03-01T05:30:06.768Z,9.30
2023-03-01T05:31:09.302Z,9.48
2023-03-01T05:32:11.867Z,13.76
2023-03-01T05:33:14.154Z,13.02
2023-03-01T05:34:16.718Z,12.92
2023-03-01T05:35:19.438Z,12.71
2023-03-01T05:36:21.665Z,8.70
2023-03-01T05:37:23.923Z,9.86
2023-03-01T05:38:26.203Z,9.87
2023-03-01T05:39:28.559Z,12.92
2023-03-01T05:40:31.106Z,10.48
2023-03-01T05:41:33.610Z,9.95
2023-03-01T05:42:36.127Z,11.13
2023-03-01T05:43:38.615Z,10.15
2023-03-01T05:44:41.136Z,12.93
2023-03-01T05:45:43.689Z,11.93
2023-03-01T05:46:46.225Z,11.02
2023-03-01T05:47:48.701Z,12.75
2023-03-01T05:48:51.183Z,11.08
2023-03-01T05:49:53.670Z,10.51
2023-03-01T05:50:56.252Z,16.27
2023-03-01T05:51:58.637Z,12.73
2023-03-01T05:53:01.117Z,11.72
2023-03-01T05:54:03.759Z,11.88
2023-03-01T05:55:06.377Z,15.65
2023-03-01T05:56:08.999Z,13.52
2023-03-01T05:57:11.232Z,14.96
2023-03-01T05:58:13.665Z,14.71
2023-03-01T05:59:15.919Z,13.78
2023-03-01T06:00:18.165Z,14.04
2023-03-01T06:01:20.399Z,13.90
2023-03-01T06:02:22.826Z,16.37
2023-03-01T06:03:25.334Z,14.44
2023-03-01T06:04:27.825Z,12.83
2023-03-01T06:05:30.464Z,11.33
2023-03-01T06:06:33.423Z,12.58
2023-03-01T06:07:36.049Z,14.42
2023-03-01T06:08:38.529Z,13.91
2023-03-01T06:09:40.985Z,16.87
2023-03-01T06:10:43.416Z,16.11
2023-03-01T06:11:45.921Z,21.27
2023-03-01T06:12:48.513Z,20.70
2023-03-01T06:13:51.110Z,14.47
2023-03-01T06:14:53.617Z,16.20
2023-03-01T06:15:56.142Z,15.82
2023-03-01T06:16:58.731Z,16.10
2023-03-01T06:18:01.166Z,19.96
2023-03-01T06:19:03.576Z,14.02
2023-03-01T06:20:05.971Z,16.82
2023-03-01T06:21:08.156Z,14.23
2023-03-01T06:22:10.399Z,19.38
2023-03-01T06:23:12.841Z,19.15
2023-03-01T06:24:15.041Z,17.18
2023-03-01T06:25:17.394Z,12.95
2023-03-01T06:26:20.038Z,13.32
2023-03-01T06:27:22.518Z,11.55
2023-03-01T06:28:25.017Z,21.62
2023-03-01T06:29:27.443Z,17.98
2023-03-01T06:30:29.929Z,16.45
2023-03-01T06:31:32.408Z,16.25
2023-03-01T06:32:35.224Z,20.53
2023-03-01T06:33:37.897Z,19.87
2023-03-01T06:34:40.418Z,21.02
2023-03-01T06:35:42.976Z,17.06
2023-03-01T06:36:45.483Z,17.31
2023-03-01T06:37:48.118Z,17.75
2023-03-01T06:38:50.647Z,19.21
2023-03-01T06:39:53.178Z,15.38
2023-03-01T06:40:55.648Z,18.32
2023-03-01T06:41:58.060Z,16.26
2023-03-01T06:43:00.653Z,18.36
2023-03-01T06:44:03.662Z,19.40
2023-03-01T06:45:06.103Z,21.62
2023-03-01T06:46:08.641Z,20.51
2023-03-01T06:47:10.830Z,16.30
2023-03-01T06:48:13.081Z,13.98
2023-03-01T06:49:15.278Z,20.14
2023-03-01T06:50:17.603Z,18.87
2023-03-01T06:51:19.845Z,18.67
2023-03-01T06:52:22.024Z,19.05
2023-03-01T06:53:24.247Z,20.17
2023-03-01T06:54:26.773Z,20.31
2023-03-01T06:55:29.232Z,21.23
2023-03-01T06:56:32.193Z,20.58
2023-03-01T06:57:34.671Z,22.59
2023-03-01T06:58:37.302Z,18.25
2023-03-01T06:59:39.702Z,21.92
2023-03-01T07:00:42.137Z,23.42
2023-03-01T07:01:44.868Z,22.48
2023-03-01T07:02:47.410Z,22.68
2023-03-01T07:03:51.417Z,22.13
2023-03-01T07:04:54.062Z,21.20
2023-03-01T07:05:56.293Z,22.07
2023-03-01T07:06:58.565Z,26.67
2023-03-01T07:08:00.805Z,19.93
2023-03-01T07:09:03.124Z,21.90
2023-03-01T07:10:05.357Z,22.22
2023-03-01T07:11:07.535Z,20.98
2023-03-01T07:12:09.836Z,21.30
2023-03-01T07:13:12.050Z,23.18
2023-03-01T07:14:14.310Z,20.73
2023-03-01T07:15:16.529Z,21.03
2023-03-01T07:16:18.751Z,21.87
2023-03-01T07:17:21.035Z,18.38
2023-03-01T07:18:23.279Z,20.05
2023-03-01T07:19:25.705Z,24.18
2023-03-01T07:20:27.899Z,22.70
2023-03-01T07:21:30.123Z,21.19
2023-03-01T07:22:32.358Z,21.71
2023-03-01T07:23:34.534Z,23.87
2023-03-01T07:24:36.796Z,20.32
2023-03-01T07:25:39.057Z,21.12
2023-03-01T07:26:41.313Z,21.15
2023-03-01T07:27:43.763Z,21.82
2023-03-01T07:28:46.236Z,18.05
2023-03-01T07:29:48.900Z,16.48
2023-03-01T07:30:51.296Z,19.68
2023-03-01T07:31:53.799Z,19.09
2023-03-01T07:32:56.492Z,17.88
2023-03-01T07:33:59.082Z,20.61
2023-03-01T07:35:01.666Z,21.82
2023-03-01T07:36:03.957Z,22.42
2023-03-01T07:37:06.426Z,19.25
2023-03-01T07:38:08.924Z,21.57
2023-03-01T07:39:11.417Z,20.34
2023-03-01T07:40:14.108Z,20.92
2023-03-01T07:41:16.382Z,17.48
2023-03-01T07:42:18.610Z,22.87
2023-03-01T07:43:20.999Z,20.26
2023-03-01T07:44:23.261Z,15.32
2023-03-01T07:45:25.707Z,16.37
2023-03-01T07:46:27.955Z,20.04
2023-03-01T07:47:30.378Z,19.76
2023-03-01T07:48:32.766Z,21.05
2023-03-01T07:49:35.370Z,20.13
2023-03-01T07:50:37.960Z,17.57
2023-03-01T07:51:40.333Z,15.11
2023-03-01T07:52:42.882Z,19.05
2023-03-01T07:53:45.275Z,23.38
2023-03-01T07:54:47.920Z,24.47
2023-03-01T07:55:50.473Z,18.62
2023-03-01T07:56:52.920Z,17.76
2023-03-01T07:57:55.343Z,16.86
2023-03-01T07:58:57.918Z,18.58
2023-03-01T08:00:00.326Z,18.61
2023-03-01T08:01:03.042Z,16.76
2023-03-01T08:02:05.348Z,18.32
2023-03-01T08:03:07.722Z,20.51
2023-03-01T08:04:10.217Z,19.34
2023-03-01T08:05:12.719Z,20.69
2023-03-01T08:06:15.325Z,20.74
2023-03-01T08:07:17.718Z,16.95
2023-03-01T08:08:20.131Z,20.98
2023-03-01T08:09:22.572Z,25.92
2023-03-01T08:10:25.065Z,20.72
2023-03-01T08:11:27.847Z,19.87
2023-03-01T08:12:30.703Z,24.97
2023-03-01T08:13:32.899Z,20.59
2023-03-01T08:14:35.209Z,18.41
2023-03-01T08:15:37.373Z,18.73
2023-03-01T08:16:39.696Z,19.96
2023-03-01T08:17:42.417Z,21.46
2023-03-01T08:18:44.874Z,20.37
2023-03-01T08:19:47.322Z,17.98
2023-03-01T08:20:49.772Z,20.85
2023-03-01T08:21:52.334Z,19.01
2023-03-01T08:22:54.568Z,21.58
2023-03-01T08:23:56.778Z,19.87
2023-03-01T08:24:59.033Z,19.96
2023-03-01T08:26:01.176Z,19.90
2023-03-01T08:27:03.697Z,22.98
2023-03-01T08:28:06.299Z,19.22
2023-03-01T08:29:09.035Z,19.27
2023-03-01T08:30:11.417Z,17.50
2023-03-01T08:31:13.851Z,17.24
2023-03-01T08:32:16.580Z,21.36
2023-03-01T08:33:19.101Z,21.47
2023-03-01T08:34:21.526Z,23.97
2023-03-01T08:35:23.971Z,25.36
2023-03-01T08:36:26.259Z,17.65
2023-03-01T08:37:28.801Z,22.68
2023-03-01T08:38:31.198Z,22.16
2023-03-01T08:39:33.629Z,18.82
2023-03-01T08:40:36.333Z,23.48
2023-03-01T08:41:38.724Z,20.69
2023-03-01T08:42:41.323Z,22.81
2023-03-01T08:43:43.705Z,22.03
2023-03-01T08:44:46.951Z,21.33
2023-03-01T08:45:49.512Z,20.09
2023-03-01T08:46:52.032Z,20.25
2023-03-01T08:47:54.610Z,20.31
2023-03-01T08:48:57.060Z,19.67
2023-03-01T08:49:59.269Z,19.23
2023-03-01T08:51:01.687Z,20.37
2023-03-01T08:52:04.160Z,19.19
2023-03-01T08:53:06.838Z,21.32
2023-03-01T08:54:09.274Z,19.68
2023-03-01T08:55:11.712Z,19.94
2023-03-01T08:56:14.174Z,23.38
2023-03-01T08:57:16.627Z,23.80
2023-03-01T08:58:19.072Z,19.29
2023-03-01T08:59:21.551Z,20.66
2023-03-01T09:00:24.002Z,18.23
2023-03-01T09:01:26.460Z,21.39
2023-03-01T09:02:28.925Z,19.86
2023-03-01T09:03:31.606Z,16.77
2023-03-01T09:04:34.241Z,19.32
2023-03-01T09:05:36.725Z,18.52
2023-03-01T09:06:39.066Z,19.45
2023-03-01T09:07:41.304Z,21.02
2023-03-01T09:08:45.429Z,24.38
2023-03-01T09:09:47.615Z,17.56
2023-03-01T09:10:49.869Z,17.34
2023-03-01T09:11:52.086Z,17.86
2023-03-01T09:12:54.242Z,19.90
2023-03-01T09:13:56.815Z,18.78
2023-03-01T09:14:59.279Z,21.46
2023-03-01T09:16:01.840Z,17.16
2023-03-01T09:17:04.492Z,19.68
2023-03-01T09:18:07.003Z,20.32
2023-03-01T09:19:09.520Z,24.27
2023-03-01T09:20:12.071Z,21.88
2023-03-01T09:21:14.597Z,19.76
2023-03-01T09:22:16.852Z,21.72
2023-03-01T09:23:19.446Z,26.45
2023-03-01T09:24:22.198Z,21.23
2023-03-01T09:25:24.668Z,21.33
2023-03-01T09:26:27.108Z,21.72
2023-03-01T09:27:29.659Z,16.24
2023-03-01T09:28:32.110Z,16.97
2023-03-01T09:29:34.631Z,19.62
2023-03-01T09:30:37.158Z,24.84
2023-03-01T09:31:39.868Z,21.62
2023-03-01T09:32:42.267Z,20.43
2023-03-01T09:33:44.776Z,21.88
2023-03-01T09:34:47.081Z,22.41
2023-03-01T09:35:49.367Z,18.52
2023-03-01T09:36:51.561Z,20.12
2023-03-01T09:37:54.046Z,20.26
2023-03-01T09:38:56.310Z,20.20
2023-03-01T09:39:58.840Z,18.54
2023-03-01T09:41:01.376Z,19.73
2023-03-01T09:42:04.180Z,22.29
2023-03-01T09:43:06.710Z,18.42
2023-03-01T09:44:09.185Z,18.29
2023-03-01T09:45:11.890Z,21.51
2023-03-01T09:46:14.498Z,26.52
2023-03-01T09:47:17.113Z,19.58
2023-03-01T09:48:19.548Z,17.21
2023-03-01T09:49:21.983Z,21.02
2023-03-01T09:50:24.212Z,19.47
2023-03-01T09:51:26.439Z,21.16
2023-03-01T09:52:28.819Z,21.27
2023-03-01T09:53:31.365Z,18.63
2023-03-01T09:54:33.827Z,23.32
2023-03-01T09:55:36.467Z,20.08
2023-03-01T09:56:39.829Z,21.22
2023-03-01T09:57:42.366Z,21.14
2023-03-01T09:58:44.801Z,23.57
2023-03-01T09:59:47.372Z,19.92
2023-03-01T10:00:49.853Z,21.28
2023-03-01T10:01:52.034Z,22.13
2023-03-01T10:02:54.307Z,18.73
2023-03-01T10:03:56.591Z,20.57
2023-03-01T10:04:58.885Z,25.21
2023-03-01T10:06:01.488Z,26.25
2023-03-01T10:07:03.772Z,22.48
2023-03-01T10:08:05.986Z,26.56
2023-03-01T10:09:08.209Z,18.12
2023-03-01T10:10:10.454Z,20.74
2023-03-01T10:11:12.866Z,20.33
2023-03-01T10:12:15.093Z,22.89
2023-03-01T10:13:17.293Z,23.59
2023-03-01T10:14:19.680Z,21.99
2023-03-01T10:15:21.918Z,19.15
2023-03-01T10:16:24.344Z,22.06
2023-03-01T10:17:26.663Z,26.65
2023-03-01T10:18:28.885Z,24.32
2023-03-01T10:19:31.081Z,22.24
2023-03-01T10:20:33.365Z,20.72
2023-03-01T10:21:37.502Z,20.83
2023-03-01T10:22:39.789Z,18.16
2023-03-01T10:23:41.974Z,22.02
2023-03-01T10:24:44.232Z,18.87
2023-03-01T10:25:46.538Z,16.74
2023-03-01T10:26:48.790Z,21.57
2023-03-01T10:27:50.996Z,16.57
2023-03-01T10:28:53.492Z,16.11
2023-03-01T10:29:55.863Z,20.26
2023-03-01T10:30:58.478Z,19.79
2023-03-01T10:32:01.255Z,19.93
2023-03-01T10:33:04.100Z,17.68
2023-03-01T10:34:06.673Z,17.19
2023-03-01T10:35:09.043Z,17.48
2023-03-01T10:36:11.555Z,17.35
2023-03-01T10:37:14.088Z,18.16
2023-03-01T10:38:16.623Z,21.25
2023-03-01T10:39:18.835Z,21.73
2023-03-01T10:40:21.003Z,19.70
2023-03-01T10:41:23.275Z,17.77
2023-03-01T10:42:25.546Z,17.66
2023-03-01T10:43:27.835Z,16.17
2023-03-01T10:44:30.054Z,20.81
2023-03-01T10:45:32.261Z,19.37
2023-03-01T10:46:34.630Z,20.43
2023-03-01T10:47:37.226Z,18.12
2023-03-01T10:48:39.678Z,18.00
2023-03-01T10:49:51.218Z,15.62
2023-03-01T10:50:54.384Z,12.94
2023-03-01T10:51:57.157Z,19.54
2023-03-01T10:52:59.919Z,19.02
2023-03-01T10:54:04.283Z,18.78
2023-03-01T10:55:08.639Z,16.60
2023-03-01T10:56:11.247Z,18.29
2023-03-01T10:57:13.900Z,14.78
2023-03-01T10:58:16.449Z,19.85
2023-03-01T10:59:19.219Z,19.42
2023-03-01T11:00:22.194Z,19.96
2023-03-01T11:01:24.940Z,21.10
2023-03-01T11:02:27.707Z,16.07
2023-03-01T11:03:30.316Z,17.34
2023-03-01T11:04:33.187Z,21.11
2023-03-01T11:05:35.852Z,22.68
2023-03-01T11:06:38.416Z,18.84
2023-03-01T11:07:41.198Z,19.31
2023-03-01T11:08:43.913Z,16.95
2023-03-01T11:09:46.628Z,20.06
2023-03-01T11:10:49.303Z,18.88
2023-03-01T11:11:52.082Z,19.10
2023-03-01T11:12:54.644Z,21.18
2023-03-01T11:13:57.384Z,16.45
2023-03-01T11:14:59.886Z,24.23
2023-03-01T11:16:02.819Z,14.47
2023-03-01T11:17:05.469Z,20.10
2023-03-01T11:18:14.168Z,21.02
2023-03-01T11:19:12.295Z,21.29
2023-03-01T11:20:14.985Z,19.28
2023-03-01T11:21:17.755Z,17.48
2023-03-01T11:22:20.295Z,21.02
2023-03-01T11:23:22.899Z,21.06
2023-03-01T11:24:25.631Z,19.49
2023-03-01T11:25:28.217Z,21.84
2023-03-01T11:26:31.104Z,23.32
2023-03-01T11:27:33.764Z,19.23
2023-03-01T11:28:36.442Z,19.08
2023-03-01T11:29:48.456Z,22.34
2023-03-01T11:30:43.408Z,20.35
2023-03-01T11:31:57.290Z,20.82
2023-03-01T11:32:50.632Z,24.53
2023-03-01T11:33:53.280Z,18.80
2023-03-01T11:34:55.942Z,20.15
2023-03-01T11:35:58.983Z,20.36
2023-03-01T11:37:01.987Z,22.15
2023-03-01T11:38:04.890Z,17.13
2023-03-01T11:39:07.731Z,22.02
2023-03-01T11:40:10.646Z,21.64
2023-03-01T11:41:13.383Z,23.28
2023-03-01T11:42:19.455Z,24.04
2023-03-01T11:43:20.774Z,21.25
2023-03-01T11:44:23.655Z,18.45
2023-03-01T11:45:26.420Z,19.51
2023-03-01T11:46:29.551Z,19.76
2023-03-01T11:47:32.806Z,17.18
2023-03-01T11:48:48.856Z,19.16
2023-03-01T11:49:39.657Z,22.95
2023-03-01T11:50:42.324Z,18.76
2023-03-01T11:51:44.919Z,17.30
2023-03-01T11:52:47.784Z,18.29
2023-03-01T11:53:50.670Z,21.48
2023-03-01T11:54:53.416Z,22.90
2023-03-01T11:55:56.220Z,20.16
2023-03-01T11:56:58.969Z,20.28
2023-03-01T11:58:02.147Z,19.94
2023-03-01T11:59:05.115Z,19.35
2023-03-01T12:00:07.684Z,14.68
2023-03-01T12:01:10.266Z,16.72
2023-03-01T12:02:13.052Z,16.40
2023-03-01T12:03:15.694Z,16.84
2023-03-01T12:04:18.439Z,16.62
2023-03-01T12:05:21.371Z,14.54
2023-03-01T12:06:24.029Z,16.86
2023-03-01T12:07:26.688Z,18.06
2023-03-01T12:08:30.585Z,17.95
2023-03-01T12:09:33.149Z,15.22
2023-03-01T12:10:35.933Z,21.05
2023-03-01T12:11:38.718Z,16.41
2023-03-01T12:12:41.370Z,13.27
2023-03-01T12:13:44.146Z,17.33
2023-03-01T12:14:46.912Z,19.25
2023-03-01T12:15:49.854Z,15.76
2023-03-01T12:16:52.823Z,14.66
2023-03-01T12:17:55.584Z,16.58
2023-03-01T12:18:58.405Z,19.32
2023-03-01T12:20:01.205Z,15.55
2023-03-01T12:21:04.470Z,16.12
2023-03-01T12:22:07.027Z,16.68
2023-03-01T12:23:20.127Z,13.83
2023-03-01T12:24:14.505Z,17.11
2023-03-01T12:25:17.298Z,20.25
2023-03-01T12:26:20.086Z,18.78
2023-03-01T12:27:22.737Z,18.42
2023-03-01T12:28:25.197Z,16.42
2023-03-01T12:29:28.398Z,15.73
2023-03-01T12:30:31.256Z,19.14
2023-03-01T12:31:34.666Z,21.07
2023-03-01T12:32:37.753Z,16.92
2023-03-01T12:33:40.428Z,17.24
2023-03-01T12:34:43.490Z,20.98
2023-03-01T12:35:45.994Z,18.25
2023-03-01T12:36:48.807Z,21.12
2023-03-01T12:37:51.610Z,22.65
2023-03-01T12:38:54.454Z,16.13
2023-03-01T12:39:57.375Z,20.11
2023-03-01T12:41:00.514Z,19.02
2023-03-01T12:42:03.949Z,16.75
2023-03-01T12:43:06.614Z,15.16
2023-03-01T12:44:09.140Z,17.45
2023-03-01T12:45:11.909Z,18.31
2023-03-01T12:46:14.550Z,18.17
2023-03-01T12:47:17.161Z,17.87
2023-03-01T12:48:19.914Z,20.68
2023-03-01T12:49:22.901Z,16.55
2023-03-01T12:50:25.997Z,14.61
2023-03-01T12:51:28.554Z,18.38
2023-03-01T12:52:31.230Z,18.26
2023-03-01T12:53:33.901Z,20.12
2023-03-01T12:54:36.684Z,21.45
2023-03-01T12:55:39.429Z,17.73
2023-03-01T12:56:42.337Z,16.78
2023-03-01T12:57:44.890Z,18.61
2023-03-01T12:58:50.601Z,19.02
2023-03-01T12:59:52.533Z,16.86
2023-03-01T13:00:55.259Z,14.52
2023-03-01T13:01:58.016Z,16.08
2023-03-01T13:03:00.911Z,16.56
2023-03-01T13:04:03.836Z,18.72
2023-03-01T13:05:06.422Z,20.15
2023-03-01T13:06:09.109Z,19.36
2023-03-01T13:07:12.181Z,17.71
2023-03-01T13:08:15.346Z,18.07
2023-03-01T13:09:18.236Z,23.41
2023-03-01T13:10:20.937Z,21.18
2023-03-01T13:11:23.900Z,20.34
2023-03-01T13:12:26.566Z,21.90
2023-03-01T13:13:29.277Z,24.79
2023-03-01T13:14:31.787Z,19.99
2023-03-01T13:15:34.586Z,20.51
2023-03-01T13:16:37.819Z,21.44
2023-03-01T13:17:40.699Z,21.22
2023-03-01T13:18:43.807Z,19.18
2023-03-01T13:19:46.405Z,17.32
2023-03-01T13:20:49.181Z,17.57
2023-03-01T13:21:52.359Z,18.81
2023-03-01T13:22:55.501Z,17.08
2023-03-01T13:23:58.872Z,22.66
2023-03-01T13:25:01.702Z,21.70
2023-03-01T13:26:04.233Z,20.02
2023-03-01T13:27:07.259Z,20.70
2023-03-01T13:28:09.909Z,17.78
2023-03-01T13:29:12.592Z,20.30
2023-03-01T13:30:15.637Z,18.41
2023-03-01T13:31:18.390Z,20.86
2023-03-01T13:32:22.370Z,22.90
2023-03-01T13:33:25.360Z,18.83